sensor_id;sensor_type;location;lat;lon;timestamp;P1;durP1;ratioP1;P2;durP2;ratioP2
21480;SDS011;10902;48.158;8.634;2023-08-06T00:01:37;6.30;;;2.60;;
21480;SDS011;10902;48.158;8.634;2023-08-06T00:04:23;6.32;;;2.92;;
21480;SDS011;10902;48.158;8.634;2023-08-06T00:07:08;7.55;;;2.97;;
21480;SDS011;10902;48.158;8.634;2023-08-06T00:09:54;5.97;;;2.85;;
21480;SDS011;10902;48.158;8.634;2023-08-06T00:12:39;6.93;;;2.38;;
21480;SDS011;10902;48.158;8.634;2023-08-06T00:15:25;5.25;;;2.45;;
21480;SDS011;10902;48.158;8.634;2023-08-06T00:18:11;5.75;;;2.22;;
21480;SDS011;10902;48.158;8.634;2023-08-06T00:20:56;5.85;;;2.75;;
21480;SDS011;10902;48.158;8.634;2023-08-06T00:23:42;5.90;;;2.80;;
21480;SDS011;10902;48.158;8.634;2023-08-06T00:26:27;6.93;;;2.70;;
21480;SDS011;10902;48.158;8.634;2023-08-06T00:29:13;5.90;;;2.35;;
21480;SDS011;10902;48.158;8.634;2023-08-06T00:31:59;5.82;;;2.83;;
21480;SDS011;10902;48.158;8.634;2023-08-06T00:34:44;17.98;;;2.60;;
21480;SDS011;10902;48.158;8.634;2023-08-06T00:37:30;5.13;;;2.40;;
21480;SDS011;10902;48.158;8.634;2023-08-06T00:40:15;6.28;;;2.70;;
21480;SDS011;10902;48.158;8.634;2023-08-06T00:43:01;6.05;;;2.47;;
21480;SDS011;10902;48.158;8.634;2023-08-06T00:45:47;5.90;;;2.53;;
21480;SDS011;10902;48.158;8.634;2023-08-06T00:48:32;7.32;;;3.17;;
21480;SDS011;10902;48.158;8.634;2023-08-06T00:51:18;5.88;;;3.05;;
21480;SDS011;10902;48.158;8.634;2023-08-06T00:54:05;7.90;;;2.90;;
21480;SDS011;10902;48.158;8.634;2023-08-06T00:56:50;5.82;;;2.72;;
21480;SDS011;10902;48.158;8.634;2023-08-06T00:59:36;7.82;;;2.97;;
21480;SDS011;10902;48.158;8.634;2023-08-06T01:02:22;5.40;;;2.80;;
21480;SDS011;10902;48.158;8.634;2023-08-06T01:05:08;5.20;;;2.83;;
21480;SDS011;10902;48.158;8.634;2023-08-06T01:08:02;7.85;;;3.30;;
21480;SDS011;10902;48.158;8.634;2023-08-06T01:14:20;6.32;;;2.75;;
21480;SDS011;10902;48.158;8.634;2023-08-06T01:17:11;6.15;;;2.78;;
21480;SDS011;10902;48.158;8.634;2023-08-06T01:19:58;6.25;;;2.85;;
21480;SDS011;10902;48.158;8.634;2023-08-06T01:22:43;7.97;;;3.28;;
21480;SDS011;10902;48.158;8.634;2023-08-06T01:25:41;7.38;;;2.60;;
21480;SDS011;10902;48.158;8.634;2023-08-06T01:31:30;5.60;;;2.10;;
21480;SDS011;10902;48.158;8.634;2023-08-06T01:34:34;5.68;;;2.08;;
21480;SDS011;10902;48.158;8.634;2023-08-06T01:37:22;6.32;;;2.20;;
21480;SDS011;10902;48.158;8.634;2023-08-06T01:40:11;5.35;;;2.08;;
21480;SDS011;10902;48.158;8.634;2023-08-06T01:42:58;4.13;;;1.90;;
21480;SDS011;10902;48.158;8.634;2023-08-06T01:45:43;4.35;;;1.92;;
21480;SDS011;10902;48.158;8.634;2023-08-06T01:48:29;4.05;;;1.80;;
21480;SDS011;10902;48.158;8.634;2023-08-06T01:51:14;5.13;;;2.00;;
21480;SDS011;10902;48.158;8.634;2023-08-06T01:54:00;4.65;;;1.88;;
21480;SDS011;10902;48.158;8.634;2023-08-06T01:56:46;6.25;;;2.30;;
21480;SDS011;10902;48.158;8.634;2023-08-06T01:59:31;6.68;;;2.28;;
21480;SDS011;10902;48.158;8.634;2023-08-06T02:02:17;4.75;;;2.08;;
21480;SDS011;10902;48.158;8.634;2023-08-06T02:05:02;4.63;;;1.75;;
21480;SDS011;10902;48.158;8.634;2023-08-06T02:07:49;4.88;;;2.20;;
21480;SDS011;10902;48.158;8.634;2023-08-06T02:10:34;5.65;;;2.10;;
21480;SDS011;10902;48.158;8.634;2023-08-06T02:13:20;5.25;;;2.17;;
21480;SDS011;10902;48.158;8.634;2023-08-06T02:16:08;4.40;;;1.98;;
21480;SDS011;10902;48.158;8.634;2023-08-06T02:18:54;5.35;;;2.28;;
21480;SDS011;10902;48.158;8.634;2023-08-06T02:21:40;4.57;;;2.30;;
21480;SDS011;10902;48.158;8.634;2023-08-06T02:24:25;5.88;;;2.00;;
21480;SDS011;10902;48.158;8.634;2023-08-06T02:27:11;5.32;;;2.20;;
21480;SDS011;10902;48.158;8.634;2023-08-06T02:29:56;4.75;;;2.17;;
21480;SDS011;10902;48.158;8.634;2023-08-06T02:32:42;5.30;;;2.17;;
21480;SDS011;10902;48.158;8.634;2023-08-06T02:35:27;7.90;;;2.10;;
21480;SDS011;10902;48.158;8.634;2023-08-06T02:38:13;4.72;;;2.38;;
21480;SDS011;10902;48.158;8.634;2023-08-06T02:41:02;5.07;;;2.25;;
21480;SDS011;10902;48.158;8.634;2023-08-06T02:43:48;4.85;;;1.70;;
21480;SDS011;10902;48.158;8.634;2023-08-06T02:46:34;5.32;;;2.08;;
21480;SDS011;10902;48.158;8.634;2023-08-06T02:49:19;5.22;;;1.70;;
21480;SDS011;10902;48.158;8.634;2023-08-06T02:52:05;4.15;;;1.92;;
21480;SDS011;10902;48.158;8.634;2023-08-06T02:54:51;6.03;;;2.08;;
21480;SDS011;10902;48.158;8.634;2023-08-06T02:57:37;5.15;;;2.20;;
21480;SDS011;10902;48.158;8.634;2023-08-06T03:00:22;5.53;;;2.25;;
21480;SDS011;10902;48.158;8.634;2023-08-06T03:03:08;4.93;;;2.47;;
21480;SDS011;10902;48.158;8.634;2023-08-06T03:05:54;23.67;;;2.85;;
21480;SDS011;10902;48.158;8.634;2023-08-06T03:08:39;6.50;;;2.58;;
21480;SDS011;10902;48.158;8.634;2023-08-06T03:11:25;4.68;;;2.10;;
21480;SDS011;10902;48.158;8.634;2023-08-06T03:14:11;4.50;;;2.10;;
21480;SDS011;10902;48.158;8.634;2023-08-06T03:16:56;4.88;;;2.33;;
21480;SDS011;10902;48.158;8.634;2023-08-06T03:19:42;5.20;;;2.35;;
21480;SDS011;10902;48.158;8.634;2023-08-06T03:22:28;5.97;;;2.72;;
21480;SDS011;10902;48.158;8.634;2023-08-06T03:25:13;5.97;;;2.80;;
21480;SDS011;10902;48.158;8.634;2023-08-06T03:28:03;5.85;;;2.75;;
21480;SDS011;10902;48.158;8.634;2023-08-06T03:31:14;14.48;;;3.72;;
21480;SDS011;10902;48.158;8.634;2023-08-06T03:34:11;7.93;;;3.50;;
21480;SDS011;10902;48.158;8.634;2023-08-06T03:41:03;4.53;;;2.03;;
21480;SDS011;10902;48.158;8.634;2023-08-06T03:43:48;5.65;;;2.28;;
21480;SDS011;10902;48.158;8.634;2023-08-06T03:46:34;4.70;;;1.70;;
21480;SDS011;10902;48.158;8.634;2023-08-06T03:49:20;5.28;;;1.65;;
21480;SDS011;10902;48.158;8.634;2023-08-06T03:52:15;4.20;;;1.13;;
21480;SDS011;10902;48.158;8.634;2023-08-06T03:59:32;2.83;;;0.73;;
21480;SDS011;10902;48.158;8.634;2023-08-06T04:02:27;3.33;;;0.77;;
21480;SDS011;10902;48.158;8.634;2023-08-06T04:05:13;2.83;;;0.70;;
21480;SDS011;10902;48.158;8.634;2023-08-06T04:07:59;2.60;;;0.60;;
21480;SDS011;10902;48.158;8.634;2023-08-06T04:10:51;3.42;;;0.70;;
21480;SDS011;10902;48.158;8.634;2023-08-06T04:13:43;2.40;;;0.32;;
21480;SDS011;10902;48.158;8.634;2023-08-06T04:16:34;4.45;;;0.95;;
21480;SDS011;10902;48.158;8.634;2023-08-06T04:24:22;2.55;;;0.55;;
21480;SDS011;10902;48.158;8.634;2023-08-06T05:15:55;3.28;;;0.70;;
21480;SDS011;10902;48.158;8.634;2023-08-06T05:18:41;3.15;;;0.85;;
21480;SDS011;10902;48.158;8.634;2023-08-06T05:21:28;3.38;;;0.70;;
21480;SDS011;10902;48.158;8.634;2023-08-06T05:24:14;2.58;;;0.52;;
21480;SDS011;10902;48.158;8.634;2023-08-06T05:26:59;2.17;;;0.60;;
21480;SDS011;10902;48.158;8.634;2023-08-06T05:29:45;2.78;;;0.60;;
21480;SDS011;10902;48.158;8.634;2023-08-06T05:32:31;3.22;;;0.60;;
21480;SDS011;10902;48.158;8.634;2023-08-06T05:35:16;3.40;;;0.40;;
21480;SDS011;10902;48.158;8.634;2023-08-06T05:38:02;2.58;;;0.45;;
21480;SDS011;10902;48.158;8.634;2023-08-06T05:40:47;1.85;;;0.35;;
21480;SDS011;10902;48.158;8.634;2023-08-06T05:43:34;2.40;;;0.52;;
21480;SDS011;10902;48.158;8.634;2023-08-06T05:46:19;2.60;;;0.55;;
21480;SDS011;10902;48.158;8.634;2023-08-06T05:49:05;1.30;;;0.30;;
21480;SDS011;10902;48.158;8.634;2023-08-06T05:51:50;1.67;;;0.30;;
21480;SDS011;10902;48.158;8.634;2023-08-06T05:54:38;1.80;;;0.40;;
21480;SDS011;10902;48.158;8.634;2023-08-06T05:57:25;3.00;;;0.40;;
21480;SDS011;10902;48.158;8.634;2023-08-06T06:00:11;1.80;;;0.40;;
21480;SDS011;10902;48.158;8.634;2023-08-06T06:10:06;1.45;;;0.38;;
21480;SDS011;10902;48.158;8.634;2023-08-06T06:13:27;3.10;;;0.50;;
21480;SDS011;10902;48.158;8.634;2023-08-06T06:24:27;3.45;;;0.60;;
21480;SDS011;10902;48.158;8.634;2023-08-06T06:27:19;3.00;;;0.60;;
21480;SDS011;10902;48.158;8.634;2023-08-06T06:30:07;2.13;;;0.38;;
21480;SDS011;10902;48.158;8.634;2023-08-06T06:32:53;1.38;;;0.22;;
21480;SDS011;10902;48.158;8.634;2023-08-06T06:35:44;1.60;;;0.30;;
21480;SDS011;10902;48.158;8.634;2023-08-06T06:38:30;1.48;;;0.40;;
21480;SDS011;10902;48.158;8.634;2023-08-06T06:41:16;0.38;;;0.20;;
21480;SDS011;10902;48.158;8.634;2023-08-06T06:44:02;1.75;;;0.20;;
21480;SDS011;10902;48.158;8.634;2023-08-06T06:46:47;0.63;;;0.22;;
21480;SDS011;10902;48.158;8.634;2023-08-06T06:49:33;1.30;;;0.10;;
21480;SDS011;10902;48.158;8.634;2023-08-06T06:52:19;0.10;;;0.00;;
21480;SDS011;10902;48.158;8.634;2023-08-06T06:55:04;0.68;;;0.05;;
21480;SDS011;10902;48.158;8.634;2023-08-06T06:57:50;1.52;;;0.20;;
21480;SDS011;10902;48.158;8.634;2023-08-06T07:00:36;0.15;;;0.00;;
21480;SDS011;10902;48.158;8.634;2023-08-06T07:03:22;1.25;;;0.35;;
21480;SDS011;10902;48.158;8.634;2023-08-06T07:06:08;0.00;;;0.00;;
21480;SDS011;10902;48.158;8.634;2023-08-06T07:08:53;0.47;;;0.08;;
21480;SDS011;10902;48.158;8.634;2023-08-06T07:11:39;0.20;;;0.00;;
21480;SDS011;10902;48.158;8.634;2023-08-06T07:14:28;0.28;;;0.08;;
21480;SDS011;10902;48.158;8.634;2023-08-06T07:17:14;0.63;;;0.10;;
21480;SDS011;10902;48.158;8.634;2023-08-06T07:20:18;1.08;;;0.20;;
21480;SDS011;10902;48.158;8.634;2023-08-06T07:23:09;1.13;;;0.10;;
21480;SDS011;10902;48.158;8.634;2023-08-06T07:25:55;0.85;;;0.10;;
21480;SDS011;10902;48.158;8.634;2023-08-06T07:28:41;1.05;;;0.25;;
21480;SDS011;10902;48.158;8.634;2023-08-06T07:31:26;0.10;;;0.00;;
21480;SDS011;10902;48.158;8.634;2023-08-06T07:34:12;0.20;;;0.10;;
21480;SDS011;10902;48.158;8.634;2023-08-06T07:36:58;1.35;;;0.10;;
21480;SDS011;10902;48.158;8.634;2023-08-06T07:39:43;0.00;;;0.00;;
21480;SDS011;10902;48.158;8.634;2023-08-06T07:42:29;1.65;;;0.20;;
21480;SDS011;10902;48.158;8.634;2023-08-06T07:45:21;0.10;;;0.00;;
21480;SDS011;10902;48.158;8.634;2023-08-06T07:48:23;0.90;;;0.10;;
21480;SDS011;10902;48.158;8.634;2023-08-06T07:51:08;1.05;;;0.15;;
21480;SDS011;10902;48.158;8.634;2023-08-06T07:53:54;0.52;;;0.10;;
21480;SDS011;10902;48.158;8.634;2023-08-06T07:56:40;2.85;;;0.43;;
21480;SDS011;10902;48.158;8.634;2023-08-06T07:59:25;0.88;;;0.10;;
21480;SDS011;10902;48.158;8.634;2023-08-06T08:02:11;1.17;;;0.20;;
21480;SDS011;10902;48.158;8.634;2023-08-06T08:05:01;1.40;;;0.10;;
21480;SDS011;10902;48.158;8.634;2023-08-06T08:07:47;0.20;;;0.03;;
21480;SDS011;10902;48.158;8.634;2023-08-06T08:10:34;0.10;;;0.08;;
21480;SDS011;10902;48.158;8.634;2023-08-06T08:13:45;0.20;;;0.05;;
21480;SDS011;10902;48.158;8.634;2023-08-06T08:16:31;0.68;;;0.10;;
21480;SDS011;10902;48.158;8.634;2023-08-06T08:19:17;0.73;;;0.20;;
21480;SDS011;10902;48.158;8.634;2023-08-06T08:22:03;0.75;;;0.10;;
21480;SDS011;10902;48.158;8.634;2023-08-06T08:24:49;0.10;;;0.10;;
21480;SDS011;10902;48.158;8.634;2023-08-06T08:27:35;0.40;;;0.13;;
21480;SDS011;10902;48.158;8.634;2023-08-06T08:30:23;0.45;;;0.13;;
21480;SDS011;10902;48.158;8.634;2023-08-06T08:33:09;0.45;;;0.10;;
21480;SDS011;10902;48.158;8.634;2023-08-06T08:35:55;1.60;;;0.10;;
21480;SDS011;10902;48.158;8.634;2023-08-06T08:38:41;0.22;;;0.00;;
21480;SDS011;10902;48.158;8.634;2023-08-06T08:41:29;0.32;;;0.10;;
21480;SDS011;10902;48.158;8.634;2023-08-06T08:44:18;0.65;;;0.10;;
21480;SDS011;10902;48.158;8.634;2023-08-06T08:47:06;0.43;;;0.00;;
21480;SDS011;10902;48.158;8.634;2023-08-06T08:49:54;0.47;;;0.10;;
21480;SDS011;10902;48.158;8.634;2023-08-06T08:52:42;0.40;;;0.10;;
21480;SDS011;10902;48.158;8.634;2023-08-06T08:55:30;0.30;;;0.00;;
21480;SDS011;10902;48.158;8.634;2023-08-06T08:58:17;0.30;;;0.10;;
21480;SDS011;10902;48.158;8.634;2023-08-06T09:01:03;0.40;;;0.10;;
21480;SDS011;10902;48.158;8.634;2023-08-06T09:03:49;0.45;;;0.10;;
21480;SDS011;10902;48.158;8.634;2023-08-06T09:06:36;0.38;;;0.00;;
21480;SDS011;10902;48.158;8.634;2023-08-06T09:09:28;0.95;;;0.00;;
21480;SDS011;10902;48.158;8.634;2023-08-06T09:12:16;1.70;;;0.10;;
21480;SDS011;10902;48.158;8.634;2023-08-06T09:15:02;0.65;;;0.00;;
21480;SDS011;10902;48.158;8.634;2023-08-06T09:17:48;0.00;;;0.00;;
21480;SDS011;10902;48.158;8.634;2023-08-06T09:20:34;0.55;;;0.10;;
21480;SDS011;10902;48.158;8.634;2023-08-06T09:23:20;0.35;;;0.10;;
21480;SDS011;10902;48.158;8.634;2023-08-06T09:26:05;0.10;;;0.00;;
21480;SDS011;10902;48.158;8.634;2023-08-06T09:29:06;0.10;;;0.10;;
21480;SDS011;10902;48.158;8.634;2023-08-06T09:31:53;0.65;;;0.00;;
21480;SDS011;10902;48.158;8.634;2023-08-06T09:34:41;0.75;;;0.10;;
21480;SDS011;10902;48.158;8.634;2023-08-06T09:37:35;0.52;;;0.00;;
21480;SDS011;10902;48.158;8.634;2023-08-06T09:43:11;0.68;;;0.10;;
21480;SDS011;10902;48.158;8.634;2023-08-06T09:45:57;0.50;;;0.10;;
21480;SDS011;10902;48.158;8.634;2023-08-06T09:48:46;0.82;;;0.00;;
21480;SDS011;10902;48.158;8.634;2023-08-06T09:51:36;1.75;;;0.00;;
21480;SDS011;10902;48.158;8.634;2023-08-06T09:54:33;0.60;;;0.10;;
21480;SDS011;10902;48.158;8.634;2023-08-06T09:57:24;0.03;;;0.00;;
21480;SDS011;10902;48.158;8.634;2023-08-06T10:03:36;0.30;;;0.10;;
21480;SDS011;10902;48.158;8.634;2023-08-06T10:06:23;1.02;;;0.10;;
21480;SDS011;10902;48.158;8.634;2023-08-06T10:09:12;0.55;;;0.00;;
21480;SDS011;10902;48.158;8.634;2023-08-06T10:12:05;0.47;;;0.10;;
21480;SDS011;10902;48.158;8.634;2023-08-06T10:15:35;0.17;;;0.00;;
21480;SDS011;10902;48.158;8.634;2023-08-06T10:18:58;0.30;;;0.10;;
21480;SDS011;10902;48.158;8.634;2023-08-06T10:25:06;0.65;;;0.10;;
21480;SDS011;10902;48.158;8.634;2023-08-06T10:27:54;0.28;;;0.10;;
21480;SDS011;10902;48.158;8.634;2023-08-06T10:30:46;0.00;;;0.00;;
21480;SDS011;10902;48.158;8.634;2023-08-06T10:33:43;0.47;;;0.10;;
21480;SDS011;10902;48.158;8.634;2023-08-06T10:36:38;0.43;;;0.00;;
21480;SDS011;10902;48.158;8.634;2023-08-06T10:39:24;0.30;;;0.10;;
21480;SDS011;10902;48.158;8.634;2023-08-06T10:42:27;0.55;;;0.05;;
21480;SDS011;10902;48.158;8.634;2023-08-06T10:49:31;0.55;;;0.10;;
21480;SDS011;10902;48.158;8.634;2023-08-06T10:52:19;0.40;;;0.08;;
21480;SDS011;10902;48.158;8.634;2023-08-06T10:55:06;0.30;;;0.10;;
21480;SDS011;10902;48.158;8.634;2023-08-06T10:57:56;0.75;;;0.17;;
21480;SDS011;10902;48.158;8.634;2023-08-06T11:00:45;0.00;;;0.00;;
21480;SDS011;10902;48.158;8.634;2023-08-06T11:03:33;0.70;;;0.10;;
21480;SDS011;10902;48.158;8.634;2023-08-06T11:09:42;0.38;;;0.17;;
21480;SDS011;10902;48.158;8.634;2023-08-06T11:12:52;0.57;;;0.10;;
21480;SDS011;10902;48.158;8.634;2023-08-06T11:16:23;0.57;;;0.10;;
21480;SDS011;10902;48.158;8.634;2023-08-06T11:19:22;0.47;;;0.10;;
21480;SDS011;10902;48.158;8.634;2023-08-06T11:22:14;1.67;;;0.20;;
21480;SDS011;10902;48.158;8.634;2023-08-06T11:25:19;0.73;;;0.10;;
21480;SDS011;10902;48.158;8.634;2023-08-06T11:28:56;0.13;;;0.08;;
21480;SDS011;10902;48.158;8.634;2023-08-06T11:31:44;1.05;;;0.20;;
21480;SDS011;10902;48.158;8.634;2023-08-06T11:34:33;0.43;;;0.13;;
21480;SDS011;10902;48.158;8.634;2023-08-06T11:37:20;0.30;;;0.17;;
21480;SDS011;10902;48.158;8.634;2023-08-06T11:40:10;0.85;;;0.20;;
21480;SDS011;10902;48.158;8.634;2023-08-06T11:42:57;0.20;;;0.10;;
21480;SDS011;10902;48.158;8.634;2023-08-06T11:45:52;1.23;;;0.30;;
21480;SDS011;10902;48.158;8.634;2023-08-06T11:48:58;1.05;;;0.30;;
21480;SDS011;10902;48.158;8.634;2023-08-06T11:51:44;1.08;;;0.35;;
21480;SDS011;10902;48.158;8.634;2023-08-06T11:54:31;1.15;;;0.30;;
21480;SDS011;10902;48.158;8.634;2023-08-06T11:57:19;1.13;;;0.20;;
21480;SDS011;10902;48.158;8.634;2023-08-06T12:00:06;1.42;;;0.40;;
21480;SDS011;10902;48.158;8.634;2023-08-06T12:02:54;1.50;;;0.40;;
21480;SDS011;10902;48.158;8.634;2023-08-06T12:05:40;1.45;;;0.43;;
21480;SDS011;10902;48.158;8.634;2023-08-06T12:08:26;0.80;;;0.28;;
21480;SDS011;10902;48.158;8.634;2023-08-06T12:11:12;1.42;;;0.40;;
21480;SDS011;10902;48.158;8.634;2023-08-06T12:13:59;1.38;;;0.30;;
21480;SDS011;10902;48.158;8.634;2023-08-06T12:16:47;1.38;;;0.40;;
21480;SDS011;10902;48.158;8.634;2023-08-06T12:19:34;1.52;;;0.50;;
21480;SDS011;10902;48.158;8.634;2023-08-06T12:22:29;1.30;;;0.52;;
21480;SDS011;10902;48.158;8.634;2023-08-06T12:26:03;0.85;;;0.30;;
21480;SDS011;10902;48.158;8.634;2023-08-06T12:29:37;0.60;;;0.10;;
21480;SDS011;10902;48.158;8.634;2023-08-06T12:32:30;0.32;;;0.10;;
21480;SDS011;10902;48.158;8.634;2023-08-06T12:38:55;0.82;;;0.25;;
21480;SDS011;10902;48.158;8.634;2023-08-06T12:41:41;0.20;;;0.10;;
21480;SDS011;10902;48.158;8.634;2023-08-06T12:44:28;0.70;;;0.13;;
21480;SDS011;10902;48.158;8.634;2023-08-06T12:47:15;1.17;;;0.10;;
21480;SDS011;10902;48.158;8.634;2023-08-06T12:50:02;0.20;;;0.10;;
21480;SDS011;10902;48.158;8.634;2023-08-06T12:52:47;0.45;;;0.10;;
21480;SDS011;10902;48.158;8.634;2023-08-06T12:55:33;0.52;;;0.20;;
21480;SDS011;10902;48.158;8.634;2023-08-06T12:58:18;0.55;;;0.20;;
21480;SDS011;10902;48.158;8.634;2023-08-06T13:01:04;0.40;;;0.20;;
21480;SDS011;10902;48.158;8.634;2023-08-06T13:03:50;0.63;;;0.20;;
21480;SDS011;10902;48.158;8.634;2023-08-06T13:06:35;0.70;;;0.10;;
21480;SDS011;10902;48.158;8.634;2023-08-06T13:09:22;0.40;;;0.10;;
21480;SDS011;10902;48.158;8.634;2023-08-06T13:12:07;1.77;;;0.17;;
21480;SDS011;10902;48.158;8.634;2023-08-06T13:14:53;0.70;;;0.28;;
21480;SDS011;10902;48.158;8.634;2023-08-06T13:17:42;1.15;;;0.20;;
21480;SDS011;10902;48.158;8.634;2023-08-06T13:20:30;0.35;;;0.10;;
21480;SDS011;10902;48.158;8.634;2023-08-06T13:23:16;0.10;;;0.10;;
21480;SDS011;10902;48.158;8.634;2023-08-06T13:26:02;0.80;;;0.10;;
21480;SDS011;10902;48.158;8.634;2023-08-06T13:28:51;0.40;;;0.10;;
21480;SDS011;10902;48.158;8.634;2023-08-06T13:31:37;1.30;;;0.20;;
21480;SDS011;10902;48.158;8.634;2023-08-06T13:34:22;0.93;;;0.20;;
21480;SDS011;10902;48.158;8.634;2023-08-06T13:37:08;1.08;;;0.30;;
21480;SDS011;10902;48.158;8.634;2023-08-06T13:39:54;0.95;;;0.30;;
21480;SDS011;10902;48.158;8.634;2023-08-06T13:42:39;1.17;;;0.40;;
21480;SDS011;10902;48.158;8.634;2023-08-06T13:45:25;0.68;;;0.20;;
21480;SDS011;10902;48.158;8.634;2023-08-06T13:48:11;0.75;;;0.25;;
21480;SDS011;10902;48.158;8.634;2023-08-06T13:50:56;0.40;;;0.13;;
21480;SDS011;10902;48.158;8.634;2023-08-06T13:53:42;0.75;;;0.30;;
21480;SDS011;10902;48.158;8.634;2023-08-06T13:56:28;0.82;;;0.20;;
21480;SDS011;10902;48.158;8.634;2023-08-06T14:16:14;1.52;;;0.45;;
21480;SDS011;10902;48.158;8.634;2023-08-06T14:19:12;1.60;;;0.47;;
21480;SDS011;10902;48.158;8.634;2023-08-06T14:21:58;1.83;;;0.50;;
21480;SDS011;10902;48.158;8.634;2023-08-06T14:24:43;2.05;;;0.50;;
21480;SDS011;10902;48.158;8.634;2023-08-06T14:27:29;2.13;;;0.68;;
21480;SDS011;10902;48.158;8.634;2023-08-06T14:30:15;1.55;;;0.40;;
21480;SDS011;10902;48.158;8.634;2023-08-06T14:33:00;1.45;;;0.30;;
21480;SDS011;10902;48.158;8.634;2023-08-06T14:35:46;1.83;;;0.30;;
21480;SDS011;10902;48.158;8.634;2023-08-06T14:38:32;1.08;;;0.28;;
21480;SDS011;10902;48.158;8.634;2023-08-06T14:41:18;1.02;;;0.30;;
21480;SDS011;10902;48.158;8.634;2023-08-06T14:44:03;3.83;;;1.00;;
21480;SDS011;10902;48.158;8.634;2023-08-06T14:46:49;2.30;;;0.65;;
21480;SDS011;10902;48.158;8.634;2023-08-06T14:49:34;2.15;;;0.52;;
21480;SDS011;10902;48.158;8.634;2023-08-06T14:52:20;2.20;;;0.50;;
21480;SDS011;10902;48.158;8.634;2023-08-06T14:55:06;2.50;;;0.63;;
21480;SDS011;10902;48.158;8.634;2023-08-06T14:57:52;2.35;;;0.60;;
21480;SDS011;10902;48.158;8.634;2023-08-06T15:00:38;1.75;;;0.60;;
21480;SDS011;10902;48.158;8.634;2023-08-06T15:03:23;2.05;;;0.60;;
21480;SDS011;10902;48.158;8.634;2023-08-06T15:06:10;2.50;;;0.68;;
21480;SDS011;10902;48.158;8.634;2023-08-06T15:08:55;2.65;;;0.70;;
21480;SDS011;10902;48.158;8.634;2023-08-06T15:11:43;1.98;;;0.52;;
21480;SDS011;10902;48.158;8.634;2023-08-06T15:14:28;2.60;;;0.80;;
21480;SDS011;10902;48.158;8.634;2023-08-06T15:17:14;3.38;;;1.00;;
21480;SDS011;10902;48.158;8.634;2023-08-06T15:20:00;2.78;;;0.90;;
21480;SDS011;10902;48.158;8.634;2023-08-06T15:22:45;3.30;;;1.00;;
21480;SDS011;10902;48.158;8.634;2023-08-06T15:25:31;2.67;;;0.90;;
21480;SDS011;10902;48.158;8.634;2023-08-06T15:28:16;2.38;;;0.70;;
21480;SDS011;10902;48.158;8.634;2023-08-06T15:31:02;3.25;;;0.90;;
21480;SDS011;10902;48.158;8.634;2023-08-06T15:33:50;4.00;;;1.00;;
21480;SDS011;10902;48.158;8.634;2023-08-06T15:36:36;1.95;;;0.55;;
21480;SDS011;10902;48.158;8.634;2023-08-06T15:39:22;2.25;;;0.70;;
21480;SDS011;10902;48.158;8.634;2023-08-06T15:42:07;3.17;;;0.50;;
21480;SDS011;10902;48.158;8.634;2023-08-06T15:44:53;2.42;;;0.88;;
21480;SDS011;10902;48.158;8.634;2023-08-06T15:47:38;2.20;;;0.68;;
21480;SDS011;10902;48.158;8.634;2023-08-06T15:50:25;2.97;;;0.80;;
21480;SDS011;10902;48.158;8.634;2023-08-06T15:53:11;3.22;;;0.73;;
21480;SDS011;10902;48.158;8.634;2023-08-06T15:55:57;3.45;;;0.90;;
21480;SDS011;10902;48.158;8.634;2023-08-06T15:58:42;2.75;;;0.93;;
21480;SDS011;10902;48.158;8.634;2023-08-06T16:01:28;3.03;;;1.02;;
21480;SDS011;10902;48.158;8.634;2023-08-06T16:04:14;3.45;;;0.80;;
21480;SDS011;10902;48.158;8.634;2023-08-06T16:06:59;2.17;;;0.70;;
21480;SDS011;10902;48.158;8.634;2023-08-06T16:09:45;2.55;;;0.70;;
21480;SDS011;10902;48.158;8.634;2023-08-06T16:12:30;2.70;;;0.80;;
21480;SDS011;10902;48.158;8.634;2023-08-06T16:15:16;3.17;;;0.70;;
21480;SDS011;10902;48.158;8.634;2023-08-06T16:18:04;2.67;;;0.80;;
21480;SDS011;10902;48.158;8.634;2023-08-06T16:20:50;4.03;;;0.85;;
21480;SDS011;10902;48.158;8.634;2023-08-06T16:23:37;3.45;;;0.80;;
21480;SDS011;10902;48.158;8.634;2023-08-06T16:26:23;2.25;;;0.70;;
21480;SDS011;10902;48.158;8.634;2023-08-06T16:29:09;3.17;;;0.88;;
21480;SDS011;10902;48.158;8.634;2023-08-06T16:31:54;2.90;;;1.08;;
21480;SDS011;10902;48.158;8.634;2023-08-06T16:34:42;3.17;;;0.70;;
21480;SDS011;10902;48.158;8.634;2023-08-06T16:37:27;3.00;;;0.90;;
21480;SDS011;10902;48.158;8.634;2023-08-06T16:40:13;2.17;;;0.77;;
21480;SDS011;10902;48.158;8.634;2023-08-06T16:42:59;3.03;;;0.88;;
21480;SDS011;10902;48.158;8.634;2023-08-06T16:45:44;3.33;;;0.90;;
21480;SDS011;10902;48.158;8.634;2023-08-06T16:48:30;4.57;;;0.88;;
21480;SDS011;10902;48.158;8.634;2023-08-06T16:51:18;4.57;;;1.10;;
21480;SDS011;10902;48.158;8.634;2023-08-06T16:54:06;3.63;;;1.10;;
21480;SDS011;10902;48.158;8.634;2023-08-06T16:56:57;3.20;;;1.25;;
21480;SDS011;10902;48.158;8.634;2023-08-06T16:59:53;3.17;;;1.10;;
21480;SDS011;10902;48.158;8.634;2023-08-06T17:02:38;4.50;;;1.30;;
21480;SDS011;10902;48.158;8.634;2023-08-06T17:05:25;5.25;;;1.50;;
21480;SDS011;10902;48.158;8.634;2023-08-06T17:08:10;3.92;;;1.15;;
21480;SDS011;10902;48.158;8.634;2023-08-06T17:10:56;4.28;;;1.30;;
21480;SDS011;10902;48.158;8.634;2023-08-06T17:13:42;3.47;;;1.10;;
21480;SDS011;10902;48.158;8.634;2023-08-06T17:16:28;5.72;;;1.13;;
21480;SDS011;10902;48.158;8.634;2023-08-06T17:22:59;3.30;;;1.08;;
21480;SDS011;10902;48.158;8.634;2023-08-06T17:25:49;3.70;;;0.80;;
21480;SDS011;10902;48.158;8.634;2023-08-06T17:28:35;2.80;;;0.88;;
21480;SDS011;10902;48.158;8.634;2023-08-06T17:31:21;3.53;;;0.90;;
21480;SDS011;10902;48.158;8.634;2023-08-06T17:34:06;3.28;;;0.80;;
21480;SDS011;10902;48.158;8.634;2023-08-06T17:36:52;2.42;;;0.95;;
21480;SDS011;10902;48.158;8.634;2023-08-06T17:39:37;3.03;;;1.10;;
21480;SDS011;10902;48.158;8.634;2023-08-06T17:42:23;3.67;;;1.20;;
21480;SDS011;10902;48.158;8.634;2023-08-06T17:45:09;3.72;;;1.10;;
21480;SDS011;10902;48.158;8.634;2023-08-06T17:47:54;3.22;;;1.20;;
21480;SDS011;10902;48.158;8.634;2023-08-06T17:50:40;3.55;;;1.23;;
21480;SDS011;10902;48.158;8.634;2023-08-06T17:53:26;3.60;;;1.10;;
21480;SDS011;10902;48.158;8.634;2023-08-06T17:56:11;3.72;;;1.13;;
21480;SDS011;10902;48.158;8.634;2023-08-06T17:58:57;4.95;;;1.13;;
21480;SDS011;10902;48.158;8.634;2023-08-06T18:01:42;3.55;;;1.27;;
21480;SDS011;10902;48.158;8.634;2023-08-06T18:04:28;4.45;;;1.60;;
21480;SDS011;10902;48.158;8.634;2023-08-06T18:07:14;4.60;;;1.20;;
21480;SDS011;10902;48.158;8.634;2023-08-06T18:09:59;5.97;;;1.70;;
21480;SDS011;10902;48.158;8.634;2023-08-06T18:12:45;3.60;;;1.25;;
21480;SDS011;10902;48.158;8.634;2023-08-06T18:15:30;3.58;;;1.30;;
21480;SDS011;10902;48.158;8.634;2023-08-06T18:18:16;4.55;;;1.40;;
21480;SDS011;10902;48.158;8.634;2023-08-06T18:21:03;4.10;;;1.30;;
21480;SDS011;10902;48.158;8.634;2023-08-06T18:23:48;4.10;;;1.40;;
21480;SDS011;10902;48.158;8.634;2023-08-06T18:26:34;4.05;;;1.30;;
21480;SDS011;10902;48.158;8.634;2023-08-06T18:29:20;3.83;;;1.40;;
21480;SDS011;10902;48.158;8.634;2023-08-06T18:32:05;5.03;;;1.65;;
21480;SDS011;10902;48.158;8.634;2023-08-06T18:34:51;5.40;;;1.58;;
21480;SDS011;10902;48.158;8.634;2023-08-06T18:37:37;4.20;;;1.50;;
21480;SDS011;10902;48.158;8.634;2023-08-06T18:40:25;4.10;;;1.40;;
21480;SDS011;10902;48.158;8.634;2023-08-06T18:43:12;4.65;;;1.48;;
21480;SDS011;10902;48.158;8.634;2023-08-06T18:45:58;4.43;;;1.60;;
21480;SDS011;10902;48.158;8.634;2023-08-06T18:48:44;7.40;;;2.00;;
21480;SDS011;10902;48.158;8.634;2023-08-06T18:51:29;4.80;;;1.60;;
21480;SDS011;10902;48.158;8.634;2023-08-06T18:54:15;4.25;;;1.63;;
21480;SDS011;10902;48.158;8.634;2023-08-06T18:57:02;3.55;;;1.33;;
21480;SDS011;10902;48.158;8.634;2023-08-06T18:59:48;5.75;;;1.40;;